sensor_id;sensor_type;location;lat;lon;timestamp;P1;durP1;ratioP1;P2;durP2;ratioP2
85301;SDS011;75707;46.948;7.410;2024-03-29T00:00:27;1.600000024;;;1.100000024;;
85301;SDS011;75707;46.948;7.410;2024-03-29T00:01:28;1.299999952;;;0.800000012;;
85301;SDS011;75707;46.948;7.410;2024-03-29T00:02:29;1.200000048;;;1.100000024;;
85301;SDS011;75707;46.948;7.410;2024-03-29T00:04:30;1.700000048;;;1.299999952;;
85301;SDS011;75707;46.948;7.410;2024-03-29T00:05:30;1.200000048;;;1.100000024;;
85301;SDS011;75707;46.948;7.410;2024-03-29T00:06:31;1.399999976;;;1;;
85301;SDS011;75707;46.948;7.410;2024-03-29T00:07:31;1.899999976;;;1;;
85301;SDS011;75707;46.948;7.410;2024-03-29T00:08:32;1.899999976;;;0.800000012;;
85301;SDS011;75707;46.948;7.410;2024-03-29T00:09:33;1.600000024;;;1.299999952;;
85301;SDS011;75707;46.948;7.410;2024-03-29T00:10:33;3.599999905;;;1;;
85301;SDS011;75707;46.948;7.410;2024-03-29T00:11:34;1.799999952;;;1.299999952;;
85301;SDS011;75707;46.948;7.410;2024-03-29T00:13:14;1.5;;;1.100000024;;
85301;SDS011;75707;46.948;7.410;2024-03-29T00:14:36;2.099999905;;;1;;
85301;SDS011;75707;46.948;7.410;2024-03-29T00:15:36;1.100000024;;;1;;
85301;SDS011;75707;46.948;7.410;2024-03-29T00:16:37;2.299999952;;;1.399999976;;
85301;SDS011;75707;46.948;7.410;2024-03-29T00:17:38;1.799999952;;;1.200000048;;
85301;SDS011;75707;46.948;7.410;2024-03-29T00:18:38;1.700000048;;;1.299999952;;
85301;SDS011;75707;46.948;7.410;2024-03-29T00:19:40;1.100000024;;;1;;
85301;SDS011;75707;46.948;7.410;2024-03-29T00:20:41;1.600000024;;;1.5;;
85301;SDS011;75707;46.948;7.410;2024-03-29T00:22:27;1.799999952;;;1.399999976;;
85301;SDS011;75707;46.948;7.410;2024-03-29T00:23:27;1.5;;;1.399999976;;
85301;SDS011;75707;46.948;7.410;2024-03-29T00:24:27;1.899999976;;;1;;
85301;SDS011;75707;46.948;7.410;2024-03-29T00:25:28;1.5;;;0.899999976;;
85301;SDS011;75707;46.948;7.410;2024-03-29T00:26:29;1.399999976;;;1.200000048;;
85301;SDS011;75707;46.948;7.410;2024-03-29T00:27:29;2.400000095;;;1.100000024;;
85301;SDS011;75707;46.948;7.410;2024-03-29T00:28:30;2.299999952;;;1.200000048;;
85301;SDS011;75707;46.948;7.410;2024-03-29T00:29:31;1.200000048;;;1;;
85301;SDS011;75707;46.948;7.410;2024-03-29T00:30:31;1.100000024;;;1;;
85301;SDS011;75707;46.948;7.410;2024-03-29T00:31:32;2.900000095;;;1.299999952;;
85301;SDS011;75707;46.948;7.410;2024-03-29T00:32:32;1.200000048;;;1.100000024;;
85301;SDS011;75707;46.948;7.410;2024-03-29T00:33:33;1.399999976;;;1.299999952;;
85301;SDS011;75707;46.948;7.410;2024-03-29T00:34:34;1.399999976;;;1.100000024;;
85301;SDS011;75707;46.948;7.410;2024-03-29T00:35:34;1.700000048;;;1;;
85301;SDS011;75707;46.948;7.410;2024-03-29T00:36:35;2.599999905;;;1.200000048;;
85301;SDS011;75707;46.948;7.410;2024-03-29T00:37:36;1.799999952;;;1;;
85301;SDS011;75707;46.948;7.410;2024-03-29T00:38:36;1.5;;;1.200000048;;
85301;SDS011;75707;46.948;7.410;2024-03-29T00:39:37;1.399999976;;;1;;
85301;SDS011;75707;46.948;7.410;2024-03-29T00:40:38;2.200000048;;;1.100000024;;
85301;SDS011;75707;46.948;7.410;2024-03-29T00:41:38;1.299999952;;;1;;
85301;SDS011;75707;46.948;7.410;2024-03-29T00:42:39;1.200000048;;;1.100000024;;
85301;SDS011;75707;46.948;7.410;2024-03-29T00:43:40;1;;;0.899999976;;
85301;SDS011;75707;46.948;7.410;2024-03-29T00:45:41;1.200000048;;;0.899999976;;
85301;SDS011;75707;46.948;7.410;2024-03-29T00:47:27;1.5;;;1.399999976;;
85301;SDS011;75707;46.948;7.410;2024-03-29T00:48:28;1.600000024;;;1.100000024;;
85301;SDS011;75707;46.948;7.410;2024-03-29T00:49:29;2.799999952;;;1.200000048;;
85301;SDS011;75707;46.948;7.410;2024-03-29T00:50:29;1.399999976;;;1.100000024;;
85301;SDS011;75707;46.948;7.410;2024-03-29T00:51:30;1.899999976;;;1.200000048;;
85301;SDS011;75707;46.948;7.410;2024-03-29T00:52:30;1.600000024;;;1.5;;
85301;SDS011;75707;46.948;7.410;2024-03-29T00:53:31;2.099999905;;;1.100000024;;
85301;SDS011;75707;46.948;7.410;2024-03-29T00:54:32;1;;;0.899999976;;
85301;SDS011;75707;46.948;7.410;2024-03-29T00:55:33;1;;;0.800000012;;
85301;SDS011;75707;46.948;7.410;2024-03-29T00:56:33;1.399999976;;;1;;
85301;SDS011;75707;46.948;7.410;2024-03-29T00:58:35;1.299999952;;;1.200000048;;
85301;SDS011;75707;46.948;7.410;2024-03-29T00:59:35;2.200000048;;;0.800000012;;
85301;SDS011;75707;46.948;7.410;2024-03-29T01:00:36;1.399999976;;;0.899999976;;
85301;SDS011;75707;46.948;7.410;2024-03-29T01:02:37;1.899999976;;;0.800000012;;
85301;SDS011;75707;46.948;7.410;2024-03-29T01:03:38;1.200000048;;;1.100000024;;
85301;SDS011;75707;46.948;7.410;2024-03-29T01:05:26;1.200000048;;;0.699999988;;
85301;SDS011;75707;46.948;7.410;2024-03-29T01:06:27;0.899999976;;;0.699999988;;
85301;SDS011;75707;46.948;7.410;2024-03-29T01:07:27;1.299999952;;;0.699999988;;
85301;SDS011;75707;46.948;7.410;2024-03-29T01:08:28;1.5;;;0.899999976;;
85301;SDS011;75707;46.948;7.410;2024-03-29T01:09:29;1.899999976;;;0.899999976;;
85301;SDS011;75707;46.948;7.410;2024-03-29T01:10:29;1.600000024;;;0.699999988;;
85301;SDS011;75707;46.948;7.410;2024-03-29T01:11:30;1.799999952;;;0.800000012;;
85301;SDS011;75707;46.948;7.410;2024-03-29T01:12:30;1.700000048;;;0.800000012;;
85301;SDS011;75707;46.948;7.410;2024-03-29T01:13:31;2.299999952;;;0.800000012;;
85301;SDS011;75707;46.948;7.410;2024-03-29T01:14:32;0.699999988;;;0.699999988;;
85301;SDS011;75707;46.948;7.410;2024-03-29T01:15:32;0.699999988;;;0.600000024;;
85301;SDS011;75707;46.948;7.410;2024-03-29T01:16:33;1.700000048;;;0.699999988;;
85301;SDS011;75707;46.948;7.410;2024-03-29T01:17:34;1.5;;;0.800000012;;
85301;SDS011;75707;46.948;7.410;2024-03-29T01:18:34;1.899999976;;;0.800000012;;
85301;SDS011;75707;46.948;7.410;2024-03-29T01:19:35;2.400000095;;;0.800000012;;
85301;SDS011;75707;46.948;7.410;2024-03-29T01:20:36;1.200000048;;;1;;
85301;SDS011;75707;46.948;7.410;2024-03-29T01:21:37;0.800000012;;;0.800000012;;
85301;SDS011;75707;46.948;7.410;2024-03-29T01:22:37;1.100000024;;;0.899999976;;
85301;SDS011;75707;46.948;7.410;2024-03-29T01:23:38;1.399999976;;;1;;
85301;SDS011;75707;46.948;7.410;2024-03-29T01:24:38;1.100000024;;;0.899999976;;
85301;SDS011;75707;46.948;7.410;2024-03-29T01:25:39;1.799999952;;;0.800000012;;
85301;SDS011;75707;46.948;7.410;2024-03-29T01:26:40;1;;;0.899999976;;
85301;SDS011;75707;46.948;7.410;2024-03-29T01:27:40;1.700000048;;;0.899999976;;
85301;SDS011;75707;46.948;7.410;2024-03-29T01:28:41;1.200000048;;;1.100000024;;
85301;SDS011;75707;46.948;7.410;2024-03-29T01:30:26;0.800000012;;;0.800000012;;
85301;SDS011;75707;46.948;7.410;2024-03-29T01:31:27;0.899999976;;;0.899999976;;
85301;SDS011;75707;46.948;7.410;2024-03-29T01:32:28;0.800000012;;;0.800000012;;
85301;SDS011;75707;46.948;7.410;2024-03-29T01:33:28;0.899999976;;;0.800000012;;
85301;SDS011;75707;46.948;7.410;2024-03-29T01:34:29;0.699999988;;;0.699999988;;
85301;SDS011;75707;46.948;7.410;2024-03-29T01:35:30;1.5;;;0.600000024;;
85301;SDS011;75707;46.948;7.410;2024-03-29T01:36:30;1.600000024;;;0.800000012;;
85301;SDS011;75707;46.948;7.410;2024-03-29T01:37:31;1.299999952;;;0.699999988;;
85301;SDS011;75707;46.948;7.410;2024-03-29T01:38:32;0.800000012;;;0.800000012;;
85301;SDS011;75707;46.948;7.410;2024-03-29T01:39:32;3.400000095;;;0.800000012;;
85301;SDS011;75707;46.948;7.410;2024-03-29T01:40:33;1.399999976;;;0.899999976;;
85301;SDS011;75707;46.948;7.410;2024-03-29T01:41:34;0.899999976;;;0.699999988;;
85301;SDS011;75707;46.948;7.410;2024-03-29T01:42:34;0.899999976;;;0.800000012;;
85301;SDS011;75707;46.948;7.410;2024-03-29T01:43:35;1.100000024;;;0.899999976;;
85301;SDS011;75707;46.948;7.410;2024-03-29T01:44:35;1.100000024;;;0.800000012;;
85301;SDS011;75707;46.948;7.410;2024-03-29T01:45:38;2.299999952;;;0.699999988;;
85301;SDS011;75707;46.948;7.410;2024-03-29T01:46:37;1;;;0.899999976;;
85301;SDS011;75707;46.948;7.410;2024-03-29T01:47:38;1.100000024;;;0.699999988;;
85301;SDS011;75707;46.948;7.410;2024-03-29T01:48:38;1.799999952;;;0.699999988;;
85301;SDS011;75707;46.948;7.410;2024-03-29T01:50:26;1;;;0.699999988;;
85301;SDS011;75707;46.948;7.410;2024-03-29T01:51:27;1.399999976;;;0.800000012;;
85301;SDS011;75707;46.948;7.410;2024-03-29T01:52:28;0.800000012;;;0.800000012;;
85301;SDS011;75707;46.948;7.410;2024-03-29T01:53:29;0.699999988;;;0.600000024;;
85301;SDS011;75707;46.948;7.410;2024-03-29T01:54:29;0.899999976;;;0.800000012;;
85301;SDS011;75707;46.948;7.410;2024-03-29T01:55:30;1.399999976;;;0.600000024;;
85301;SDS011;75707;46.948;7.410;2024-03-29T01:56:31;0.899999976;;;0.800000012;;
85301;SDS011;75707;46.948;7.410;2024-03-29T01:57:31;1.299999952;;;0.800000012;;
85301;SDS011;75707;46.948;7.410;2024-03-29T01:58:32;1;;;0.699999988;;
85301;SDS011;75707;46.948;7.410;2024-03-29T01:59:32;1.399999976;;;0.800000012;;
85301;SDS011;75707;46.948;7.410;2024-03-29T02:00:33;0.699999988;;;0.600000024;;
85301;SDS011;75707;46.948;7.410;2024-03-29T02:01:34;0.899999976;;;0.699999988;;
85301;SDS011;75707;46.948;7.410;2024-03-29T02:02:34;1.100000024;;;0.699999988;;
85301;SDS011;75707;46.948;7.410;2024-03-29T02:03:35;0.699999988;;;0.699999988;;
85301;SDS011;75707;46.948;7.410;2024-03-29T02:04:36;0.600000024;;;0.600000024;;
85301;SDS011;75707;46.948;7.410;2024-03-29T02:05:36;0.800000012;;;0.600000024;;
85301;SDS011;75707;46.948;7.410;2024-03-29T02:06:37;0.699999988;;;0.600000024;;
85301;SDS011;75707;46.948;7.410;2024-03-29T02:07:38;1.200000048;;;0.699999988;;
85301;SDS011;75707;46.948;7.410;2024-03-29T02:08:38;1;;;0.699999988;;
85301;SDS011;75707;46.948;7.410;2024-03-29T02:09:39;1.100000024;;;0.699999988;;
85301;SDS011;75707;46.948;7.410;2024-03-29T02:10:40;1.899999976;;;0.600000024;;
85301;SDS011;75707;46.948;7.410;2024-03-29T02:11:41;1.200000048;;;0.699999988;;
85301;SDS011;75707;46.948;7.410;2024-03-29T02:13:26;0.800000012;;;0.600000024;;
85301;SDS011;75707;46.948;7.410;2024-03-29T02:14:27;2.200000048;;;0.600000024;;
85301;SDS011;75707;46.948;7.410;2024-03-29T02:15:28;0.800000012;;;0.600000024;;
85301;SDS011;75707;46.948;7.410;2024-03-29T02:16:29;2.099999905;;;0.699999988;;
85301;SDS011;75707;46.948;7.410;2024-03-29T02:17:30;0.699999988;;;0.699999988;;
85301;SDS011;75707;46.948;7.410;2024-03-29T02:18:30;1.299999952;;;0.600000024;;
85301;SDS011;75707;46.948;7.410;2024-03-29T02:19:31;1.5;;;0.600000024;;
85301;SDS011;75707;46.948;7.410;2024-03-29T02:20:32;0.899999976;;;0.800000012;;
85301;SDS011;75707;46.948;7.410;2024-03-29T02:21:33;1.299999952;;;0.800000012;;
85301;SDS011;75707;46.948;7.410;2024-03-29T02:22:34;0.600000024;;;0.600000024;;
85301;SDS011;75707;46.948;7.410;2024-03-29T02:23:40;3.799999952;;;0.899999976;;
85301;SDS011;75707;46.948;7.410;2024-03-29T02:24:35;0.699999988;;;0.699999988;;
85301;SDS011;75707;46.948;7.410;2024-03-29T02:25:36;0.699999988;;;0.600000024;;
85301;SDS011;75707;46.948;7.410;2024-03-29T02:26:37;1;;;0.800000012;;
85301;SDS011;75707;46.948;7.410;2024-03-29T02:27:37;2.099999905;;;0.899999976;;
85301;SDS011;75707;46.948;7.410;2024-03-29T02:28:38;1;;;0.899999976;;
85301;SDS011;75707;46.948;7.410;2024-03-29T02:30:26;1.200000048;;;0.699999988;;
85301;SDS011;75707;46.948;7.410;2024-03-29T02:31:26;0.899999976;;;0.899999976;;
85301;SDS011;75707;46.948;7.410;2024-03-29T02:32:27;0.800000012;;;0.800000012;;
85301;SDS011;75707;46.948;7.410;2024-03-29T02:33:28;1.100000024;;;0.899999976;;
85301;SDS011;75707;46.948;7.410;2024-03-29T02:34:29;2.099999905;;;0.899999976;;
85301;SDS011;75707;46.948;7.410;2024-03-29T02:36:30;0.899999976;;;0.800000012;;
85301;SDS011;75707;46.948;7.410;2024-03-29T02:37:31;0.800000012;;;0.699999988;;
85301;SDS011;75707;46.948;7.410;2024-03-29T02:38:31;1.5;;;0.899999976;;
85301;SDS011;75707;46.948;7.410;2024-03-29T02:39:32;1.799999952;;;0.800000012;;
85301;SDS011;75707;46.948;7.410;2024-03-29T02:40:33;1;;;0.899999976;;
85301;SDS011;75707;46.948;7.410;2024-03-29T02:41:34;1.299999952;;;0.800000012;;
85301;SDS011;75707;46.948;7.410;2024-03-29T02:42:34;0.899999976;;;0.800000012;;
85301;SDS011;75707;46.948;7.410;2024-03-29T02:43:35;1;;;0.600000024;;
85301;SDS011;75707;46.948;7.410;2024-03-29T02:44:36;0.899999976;;;0.699999988;;
85301;SDS011;75707;46.948;7.410;2024-03-29T02:45:36;0.800000012;;;0.600000024;;
85301;SDS011;75707;46.948;7.410;2024-03-29T02:46:37;0.899999976;;;0.699999988;;
85301;SDS011;75707;46.948;7.410;2024-03-29T02:47:38;1;;;0.699999988;;
85301;SDS011;75707;46.948;7.410;2024-03-29T02:48:38;1.799999952;;;0.800000012;;
85301;SDS011;75707;46.948;7.410;2024-03-29T02:49:39;1;;;0.800000012;;
85301;SDS011;75707;46.948;7.410;2024-03-29T02:50:40;1.299999952;;;0.800000012;;
85301;SDS011;75707;46.948;7.410;2024-03-29T02:51:40;0.899999976;;;0.899999976;;
85301;SDS011;75707;46.948;7.410;2024-03-29T02:52:41;0.800000012;;;0.800000012;;
85301;SDS011;75707;46.948;7.410;2024-03-29T02:54:25;1.200000048;;;0.800000012;;
85301;SDS011;75707;46.948;7.410;2024-03-29T02:55:26;2;;;0.600000024;;
85301;SDS011;75707;46.948;7.410;2024-03-29T02:56:26;3.700000048;;;1.200000048;;
85301;SDS011;75707;46.948;7.410;2024-03-29T02:57:27;0.699999988;;;0.600000024;;
85301;SDS011;75707;46.948;7.410;2024-03-29T02:58:27;2.099999905;;;0.699999988;;
85301;SDS011;75707;46.948;7.410;2024-03-29T02:59:28;1.799999952;;;0.699999988;;
85301;SDS011;75707;46.948;7.410;2024-03-29T03:00:29;1;;;0.899999976;;
85301;SDS011;75707;46.948;7.410;2024-03-29T03:01:29;2.900000095;;;1;;
85301;SDS011;75707;46.948;7.410;2024-03-29T03:02:30;1.299999952;;;1;;
85301;SDS011;75707;46.948;7.410;2024-03-29T03:03:31;1;;;0.899999976;;
85301;SDS011;75707;46.948;7.410;2024-03-29T03:04:32;1.600000024;;;0.699999988;;
85301;SDS011;75707;46.948;7.410;2024-03-29T03:05:32;0.800000012;;;0.600000024;;
85301;SDS011;75707;46.948;7.410;2024-03-29T03:07:27;1.200000048;;;0.899999976;;
85301;SDS011;75707;46.948;7.410;2024-03-29T03:10:09;1.5;;;0.699999988;;
85301;SDS011;75707;46.948;7.410;2024-03-29T03:12:05;1.100000024;;;0.699999988;;
85301;SDS011;75707;46.948;7.410;2024-03-29T03:13:26;1.100000024;;;0.800000012;;
85301;SDS011;75707;46.948;7.410;2024-03-29T03:14:26;1.799999952;;;0.600000024;;
85301;SDS011;75707;46.948;7.410;2024-03-29T03:15:26;0.699999988;;;0.699999988;;
85301;SDS011;75707;46.948;7.410;2024-03-29T03:16:27;2.200000048;;;0.800000012;;
85301;SDS011;75707;46.948;7.410;2024-03-29T03:17:28;1;;;0.800000012;;
85301;SDS011;75707;46.948;7.410;2024-03-29T03:18:29;2.099999905;;;1.200000048;;
85301;SDS011;75707;46.948;7.410;2024-03-29T03:19:29;0.699999988;;;0.5;;
85301;SDS011;75707;46.948;7.410;2024-03-29T03:20:30;0.899999976;;;0.899999976;;
85301;SDS011;75707;46.948;7.410;2024-03-29T03:21:31;1.100000024;;;0.899999976;;
85301;SDS011;75707;46.948;7.410;2024-03-29T03:22:31;0.800000012;;;0.699999988;;
85301;SDS011;75707;46.948;7.410;2024-03-29T03:23:32;1.200000048;;;0.699999988;;
85301;SDS011;75707;46.948;7.410;2024-03-29T03:24:32;0.800000012;;;0.800000012;;
85301;SDS011;75707;46.948;7.410;2024-03-29T03:25:34;0.699999988;;;0.699999988;;
85301;SDS011;75707;46.948;7.410;2024-03-29T03:26:34;2.599999905;;;0.800000012;;
85301;SDS011;75707;46.948;7.410;2024-03-29T03:27:34;1.100000024;;;0.800000012;;
85301;SDS011;75707;46.948;7.410;2024-03-29T03:28:35;0.600000024;;;0.600000024;;
85301;SDS011;75707;46.948;7.410;2024-03-29T03:30:37;1.299999952;;;0.600000024;;
85301;SDS011;75707;46.948;7.410;2024-03-29T03:31:37;1.399999976;;;0.800000012;;
85301;SDS011;75707;46.948;7.410;2024-03-29T03:32:37;0.800000012;;;0.699999988;;
85301;SDS011;75707;46.948;7.410;2024-03-29T03:33:38;2.299999952;;;0.800000012;;
85301;SDS011;75707;46.948;7.410;2024-03-29T03:34:39;1.200000048;;;0.600000024;;
85301;SDS011;75707;46.948;7.410;2024-03-29T03:35:39;0.800000012;;;0.800000012;;
85301;SDS011;75707;46.948;7.410;2024-03-29T03:36:40;0.699999988;;;0.699999988;;
85301;SDS011;75707;46.948;7.410;2024-03-29T03:37:41;1.200000048;;;0.600000024;;
85301;SDS011;75707;46.948;7.410;2024-03-29T03:39:25;1.100000024;;;0.800000012;;
85301;SDS011;75707;46.948;7.410;2024-03-29T03:40:26;1.100000024;;;0.699999988;;
85301;SDS011;75707;46.948;7.410;2024-03-29T03:41:27;1.299999952;;;1.100000024;;
85301;SDS011;75707;46.948;7.410;2024-03-29T03:42:27;2.5;;;0.699999988;;
85301;SDS011;75707;46.948;7.410;2024-03-29T03:43:28;0.600000024;;;0.600000024;;
85301;SDS011;75707;46.948;7.410;2024-03-29T03:44:29;1.399999976;;;0.600000024;;
85301;SDS011;75707;46.948;7.410;2024-03-29T03:45:33;0.699999988;;;0.699999988;;
85301;SDS011;75707;46.948;7.410;2024-03-29T03:46:31;0.600000024;;;0.600000024;;
85301;SDS011;75707;46.948;7.410;2024-03-29T03:48:32;1.200000048;;;0.800000012;;
85301;SDS011;75707;46.948;7.410;2024-03-29T03:49:33;0.899999976;;;0.899999976;;
85301;SDS011;75707;46.948;7.410;2024-03-29T03:50:33;0.600000024;;;0.5;;
85301;SDS011;75707;46.948;7.410;2024-03-29T03:51:34;1;;;0.899999976;;
85301;SDS011;75707;46.948;7.410;2024-03-29T03:52:35;0.800000012;;;0.800000012;;
85301;SDS011;75707;46.948;7.410;2024-03-29T03:53:35;1.600000024;;;0.699999988;;
85301;SDS011;75707;46.948;7.410;2024-03-29T03:54:36;0.800000012;;;0.600000024;;
85301;SDS011;75707;46.948;7.410;2024-03-29T03:56:25;0.600000024;;;0.600000024;;
85301;SDS011;75707;46.948;7.410;2024-03-29T03:57:25;1;;;0.600000024;;
85301;SDS011;75707;46.948;7.410;2024-03-29T03:58:26;0.5;;;0.5;;
85301;SDS011;75707;46.948;7.410;2024-03-29T03:59:26;0.600000024;;;0.600000024;;
85301;SDS011;75707;46.948;7.410;2024-03-29T04:00:49;0.600000024;;;0.600000024;;
85301;SDS011;75707;46.948;7.410;2024-03-29T04:02:29;0.800000012;;;0.600000024;;
85301;SDS011;75707;46.948;7.410;2024-03-29T04:03:29;1.600000024;;;0.5;;
85301;SDS011;75707;46.948;7.410;2024-03-29T04:04:30;0.5;;;0.5;;
85301;SDS011;75707;46.948;7.410;2024-03-29T04:05:31;1.399999976;;;0.699999988;;
85301;SDS011;75707;46.948;7.410;2024-03-29T04:06:31;0.800000012;;;0.5;;
85301;SDS011;75707;46.948;7.410;2024-03-29T04:07:32;1.100000024;;;1;;
85301;SDS011;75707;46.948;7.410;2024-03-29T04:08:33;0.800000012;;;0.600000024;;
85301;SDS011;75707;46.948;7.410;2024-03-29T04:09:33;1.100000024;;;0.600000024;;
85301;SDS011;75707;46.948;7.410;2024-03-29T04:10:37;1;;;0.600000024;;
85301;SDS011;75707;46.948;7.410;2024-03-29T04:11:35;1.399999976;;;0.600000024;;
85301;SDS011;75707;46.948;7.410;2024-03-29T04:12:36;0.899999976;;;0.800000012;;
85301;SDS011;75707;46.948;7.410;2024-03-29T04:13:36;2.099999905;;;0.699999988;;
85301;SDS011;75707;46.948;7.410;2024-03-29T04:14:37;0.899999976;;;0.800000012;;
85301;SDS011;75707;46.948;7.410;2024-03-29T04:15:38;1.200000048;;;0.5;;
85301;SDS011;75707;46.948;7.410;2024-03-29T04:16:38;1.100000024;;;0.600000024;;
85301;SDS011;75707;46.948;7.410;2024-03-29T04:17:39;0.800000012;;;0.600000024;;
85301;SDS011;75707;46.948;7.410;2024-03-29T04:18:40;2.599999905;;;0.699999988;;
85301;SDS011;75707;46.948;7.410;2024-03-29T04:19:41;0.800000012;;;0.800000012;;
85301;SDS011;75707;46.948;7.410;2024-03-29T04:21:24;1.399999976;;;0.600000024;;
85301;SDS011;75707;46.948;7.410;2024-03-29T04:22:27;0.699999988;;;0.699999988;;
85301;SDS011;75707;46.948;7.410;2024-03-29T04:23:26;1.299999952;;;0.699999988;;
85301;SDS011;75707;46.948;7.410;2024-03-29T04:24:27;1;;;0.899999976;;
85301;SDS011;75707;46.948;7.410;2024-03-29T04:25:27;0.800000012;;;0.600000024;;
85301;SDS011;75707;46.948;7.410;2024-03-29T04:26:28;0.899999976;;;0.5;;
85301;SDS011;75707;46.948;7.410;2024-03-29T04:27:29;1.100000024;;;0.699999988;;
85301;SDS011;75707;46.948;7.410;2024-03-29T04:28:29;2.099999905;;;0.899999976;;
85301;SDS011;75707;46.948;7.410;2024-03-29T04:29:30;1.700000048;;;0.800000012;;
85301;SDS011;75707;46.948;7.410;2024-03-29T04:30:31;0.800000012;;;0.699999988;;
85301;SDS011;75707;46.948;7.410;2024-03-29T04:31:32;1.200000048;;;0.600000024;;
85301;SDS011;75707;46.948;7.410;2024-03-29T04:32:32;1.5;;;0.699999988;;
85301;SDS011;75707;46.948;7.410;2024-03-29T04:33:33;0.699999988;;;0.699999988;;
85301;SDS011;75707;46.948;7.410;2024-03-29T04:34:34;0.899999976;;;0.800000012;;
85301;SDS011;75707;46.948;7.410;2024-03-29T04:35:34;0.699999988;;;0.699999988;;
85301;SDS011;75707;46.948;7.410;2024-03-29T04:36:35;1.299999952;;;0.899999976;;
85301;SDS011;75707;46.948;7.410;2024-03-29T04:37:36;0.600000024;;;0.600000024;;
85301;SDS011;75707;46.948;7.410;2024-03-29T04:39:25;0.699999988;;;0.600000024;;
85301;SDS011;75707;46.948;7.410;2024-03-29T04:40:26;1.200000048;;;0.5;;
85301;SDS011;75707;46.948;7.410;2024-03-29T04:41:26;0.600000024;;;0.400000006;;
85301;SDS011;75707;46.948;7.410;2024-03-29T04:42:27;2;;;0.699999988;;
85301;SDS011;75707;46.948;7.410;2024-03-29T04:43:28;0.5;;;0.5;;
85301;SDS011;75707;46.948;7.410;2024-03-29T04:44:29;1;;;0.600000024;;
85301;SDS011;75707;46.948;7.410;2024-03-29T04:45:29;1.700000048;;;0.699999988;;
85301;SDS011;75707;46.948;7.410;2024-03-29T04:46:30;1;;;0.600000024;;
85301;SDS011;75707;46.948;7.410;2024-03-29T04:47:31;0.5;;;0.5;;
85301;SDS011;75707;46.948;7.410;2024-03-29T04:48:32;0.800000012;;;0.400000006;;
85301;SDS011;75707;46.948;7.410;2024-03-29T04:49:33;0.800000012;;;0.5;;
85301;SDS011;75707;46.948;7.410;2024-03-29T04:50:33;1.700000048;;;0.5;;
85301;SDS011;75707;46.948;7.410;2024-03-29T04:51:34;0.800000012;;;0.800000012;;
85301;SDS011;75707;46.948;7.410;2024-03-29T04:52:35;1.100000024;;;0.600000024;;
85301;SDS011;75707;46.948;7.410;2024-03-29T04:53:36;0.600000024;;;0.600000024;;
85301;SDS011;75707;46.948;7.410;2024-03-29T04:54:36;0.5;;;0.5;;
85301;SDS011;75707;46.948;7.410;2024-03-29T04:55:37;0.600000024;;;0.600000024;;
85301;SDS011;75707;46.948;7.410;2024-03-29T04:56:38;1.200000048;;;0.699999988;;
85301;SDS011;75707;46.948;7.410;2024-03-29T04:57:39;1.200000048;;;0.5;;
85301;SDS011;75707;46.948;7.410;2024-03-29T04:58:40;0.600000024;;;0.600000024;;
85301;SDS011;75707;46.948;7.410;2024-03-29T05:00:24;0.800000012;;;0.5;;
85301;SDS011;75707;46.948;7.410;2024-03-29T05:01:25;0.899999976;;;0.600000024;;
85301;SDS011;75707;46.948;7.410;2024-03-29T05:02:25;0.699999988;;;0.699999988;;
85301;SDS011;75707;46.948;7.410;2024-03-29T05:03:26;0.5;;;0.5;;
85301;SDS011;75707;46.948;7.410;2024-03-29T05:04:27;1.200000048;;;0.600000024;;
85301;SDS011;75707;46.948;7.410;2024-03-29T05:05:28;0.699999988;;;0.5;;
85301;SDS011;75707;46.948;7.410;2024-03-29T05:06:29;0.5;;;0.5;;
85301;SDS011;75707;46.948;7.410;2024-03-29T05:07:30;0.600000024;;;0.600000024;;
85301;SDS011;75707;46.948;7.410;2024-03-29T05:08:30;1.299999952;;;0.699999988;;
85301;SDS011;75707;46.948;7.410;2024-03-29T05:09:31;1.5;;;0.699999988;;
85301;SDS011;75707;46.948;7.410;2024-03-29T05:10:32;0.600000024;;;0.5;;
85301;SDS011;75707;46.948;7.410;2024-03-29T05:11:32;0.699999988;;;0.699999988;;
85301;SDS011;75707;46.948;7.410;2024-03-29T05:12:33;1.600000024;;;0.5;;
85301;SDS011;75707;46.948;7.410;2024-03-29T05:13:34;2;;;0.600000024;;
85301;SDS011;75707;46.948;7.410;2024-03-29T05:14:35;1.200000048;;;0.600000024;;
85301;SDS011;75707;46.948;7.410;2024-03-29T05:15:36;0.899999976;;;0.600000024;;
85301;SDS011;75707;46.948;7.410;2024-03-29T05:17:24;0.600000024;;;0.600000024;;
85301;SDS011;75707;46.948;7.410;2024-03-29T05:18:25;2.5;;;0.600000024;;
85301;SDS011;75707;46.948;7.410;2024-03-29T05:19:25;0.5;;;0.5;;
85301;SDS011;75707;46.948;7.410;2024-03-29T05:20:26;1;;;0.600000024;;
85301;SDS011;75707;46.948;7.410;2024-03-29T05:21:27;0.800000012;;;0.600000024;;
85301;SDS011;75707;46.948;7.410;2024-03-29T05:22:28;0.800000012;;;0.400000006;;
85301;SDS011;75707;46.948;7.410;2024-03-29T05:23:29;0.5;;;0.5;;
85301;SDS011;75707;46.948;7.410;2024-03-29T05:24:30;0.400000006;;;0.400000006;;
85301;SDS011;75707;46.948;7.410;2024-03-29T05:25:31;1.200000048;;;0.5;;
85301;SDS011;75707;46.948;7.410;2024-03-29T05:26:31;0.600000024;;;0.400000006;;
85301;SDS011;75707;46.948;7.410;2024-03-29T05:27:32;2.200000048;;;0.5;;
85301;SDS011;75707;46.948;7.410;2024-03-29T05:28:33;1.100000024;;;0.5;;
85301;SDS011;75707;46.948;7.410;2024-03-29T05:29:34;1.100000024;;;0.699999988;;
85301;SDS011;75707;46.948;7.410;2024-03-29T05:30:34;0.899999976;;;0.600000024;;
85301;SDS011;75707;46.948;7.410;2024-03-29T05:31:35;1;;;0.400000006;;
85301;SDS011;75707;46.948;7.410;2024-03-29T05:32:36;0.5;;;0.5;;
85301;SDS011;75707;46.948;7.410;2024-03-29T05:33:37;0.600000024;;;0.5;;
85301;SDS011;75707;46.948;7.410;2024-03-29T05:34:38;0.800000012;;;0.600000024;;
85301;SDS011;75707;46.948;7.410;2024-03-29T05:35:39;1;;;1;;
85301;SDS011;75707;46.948;7.410;2024-03-29T05:36:40;0.699999988;;;0.5;;